createdAt,value
2019-02-05T00:00:33.752Z,5.83
2019-02-05T00:03:02.119Z,6.70
2019-02-05T00:05:30.368Z,6.47
2019-02-05T00:07:58.666Z,5.80
2019-02-05T00:10:27.267Z,6.70
2019-02-05T00:12:55.574Z,4.95
2019-02-05T00:15:23.801Z,5.40
2019-02-05T00:17:53.812Z,6.40
2019-02-05T00:20:22.036Z,4.10
2019-02-05T00:22:50.278Z,5.72
2019-02-05T00:25:18.507Z,4.40
2019-02-05T00:27:47.299Z,3.12
2019-02-05T00:30:16.377Z,4.90
2019-02-05T00:32:45.004Z,4.95
2019-02-05T00:35:13.448Z,4.83
2019-02-05T00:37:41.678Z,4.10
2019-02-05T00:40:12.409Z,4.65
2019-02-05T00:42:40.620Z,4.70
2019-02-05T00:45:13.987Z,5.17
2019-02-05T00:47:42.675Z,3.75
2019-02-05T00:50:12.930Z,4.78
2019-02-05T00:52:41.453Z,4.42
2019-02-05T00:55:27.108Z,5.28
2019-02-05T00:57:55.466Z,6.83
2019-02-05T01:00:29.903Z,6.75
2019-02-05T01:02:58.183Z,6.90
2019-02-05T01:05:26.487Z,7.78
2019-02-05T01:07:54.706Z,6.97
2019-02-05T01:10:25.608Z,7.10
2019-02-05T01:12:54.228Z,7.60
2019-02-05T01:15:23.626Z,7.53
2019-02-05T01:17:51.862Z,7.00
2019-02-05T01:20:21.447Z,7.47
2019-02-05T01:22:50.125Z,8.05
2019-02-05T01:25:19.506Z,8.28
2019-02-05T01:27:48.121Z,7.55
2019-02-05T01:30:40.772Z,8.13
2019-02-05T01:33:09.004Z,7.05
2019-02-05T01:35:37.218Z,7.28
2019-02-05T01:38:05.920Z,7.55
2019-02-05T01:40:34.150Z,7.87
2019-02-05T01:43:02.365Z,7.25
2019-02-05T01:45:30.611Z,7.35
2019-02-05T01:47:58.863Z,6.87
2019-02-05T01:50:27.871Z,8.18
2019-02-05T01:52:56.102Z,8.28
2019-02-05T01:55:24.530Z,7.45
2019-02-05T01:57:52.778Z,8.53
2019-02-05T02:00:26.829Z,7.62
2019-02-05T02:02:55.070Z,7.08
2019-02-05T02:05:23.370Z,8.18
2019-02-05T02:07:51.854Z,8.50
2019-02-05T02:10:23.024Z,8.38
2019-02-05T02:12:51.587Z,8.10
2019-02-05T02:15:19.822Z,7.97
2019-02-05T02:17:48.054Z,7.03
2019-02-05T02:20:17.937Z,8.20
2019-02-05T02:22:46.640Z,7.83
2019-02-05T02:25:15.415Z,8.18
2019-02-05T02:27:43.711Z,7.55
2019-02-05T02:30:20.436Z,8.25
2019-02-05T02:32:48.719Z,7.25
2019-02-05T02:35:16.933Z,8.40
2019-02-05T02:37:45.548Z,8.28
2019-02-05T02:40:14.062Z,8.10
2019-02-05T02:42:42.286Z,8.70
2019-02-05T02:45:15.156Z,8.23
2019-02-05T02:47:43.404Z,9.33
2019-02-05T02:50:17.130Z,8.30
2019-02-05T02:52:45.771Z,6.90
2019-02-05T02:55:14.054Z,7.35
2019-02-05T02:57:42.739Z,7.62
2019-02-05T03:00:13.716Z,6.42
2019-02-05T03:02:42.064Z,5.15
2019-02-05T03:05:17.228Z,7.45
2019-02-05T03:07:45.918Z,7.40
2019-02-05T03:10:26.798Z,7.58
2019-02-05T03:12:55.539Z,7.40
2019-02-05T03:15:23.880Z,6.97
2019-02-05T03:17:52.177Z,8.00
2019-02-05T03:20:20.548Z,7.90
2019-02-05T03:22:48.924Z,9.25
2019-02-05T03:25:20.496Z,7.92
2019-02-05T03:27:48.794Z,7.67
2019-02-05T03:30:20.360Z,9.30
2019-02-05T03:32:48.801Z,9.53
2019-02-05T03:35:18.078Z,10.38
2019-02-05T03:37:46.315Z,9.98
2019-02-05T03:40:26.867Z,13.32
2019-02-05T03:42:55.152Z,12.55
2019-02-05T03:45:24.201Z,14.68
2019-02-05T03:47:53.276Z,14.25
2019-02-05T03:50:21.555Z,14.73
2019-02-05T03:52:53.033Z,13.88
2019-02-05T03:55:51.589Z,13.70
2019-02-05T03:58:26.155Z,16.20
2019-02-05T04:01:00.496Z,15.83
2019-02-05T04:03:40.965Z,15.28
2019-02-05T04:06:30.515Z,16.12
2019-02-05T04:09:07.741Z,15.72
2019-02-05T04:11:54.695Z,17.23
2019-02-05T04:14:31.797Z,15.05
2019-02-05T04:17:24.132Z,17.77
2019-02-05T04:20:13.789Z,17.15
2019-02-05T04:22:51.556Z,17.30
2019-02-05T04:25:23.142Z,17.65
2019-02-05T04:28:13.043Z,16.55
2019-02-05T04:30:53.699Z,18.45
2019-02-05T04:33:31.459Z,17.00
2019-02-05T04:36:08.571Z,16.85
2019-02-05T04:38:45.974Z,17.48
2019-02-05T04:41:32.335Z,17.02
2019-02-05T04:44:14.886Z,14.58
2019-02-05T04:47:21.090Z,14.43
2019-02-05T04:49:58.740Z,13.30
2019-02-05T04:52:35.813Z,10.50
2019-02-05T04:55:09.717Z,11.63
2019-02-05T04:57:57.342Z,10.18
2019-02-05T05:03:09.126Z,10.32
2019-02-05T05:05:43.443Z,9.78
2019-02-05T05:08:27.218Z,10.63
2019-02-05T05:10:55.571Z,10.35
2019-02-05T05:13:24.037Z,11.73
2019-02-05T05:15:52.462Z,11.35
2019-02-05T05:18:20.746Z,10.72
2019-02-05T05:20:49.039Z,10.75
2019-02-05T05:23:17.339Z,10.13
2019-02-05T05:25:45.630Z,11.50
2019-02-05T05:28:13.957Z,11.53
2019-02-05T05:30:42.259Z,12.78
2019-02-05T05:33:11.169Z,15.55
2019-02-05T05:35:44.250Z,13.68
2019-02-05T05:38:09.855Z,12.68
2019-02-05T05:40:38.182Z,13.48
2019-02-05T05:43:06.449Z,12.35
2019-02-05T05:45:34.808Z,12.03
2019-02-05T05:48:03.240Z,11.70
2019-02-05T05:50:31.842Z,12.18
2019-02-05T05:53:00.265Z,13.43
2019-02-05T05:55:28.677Z,11.35
2019-02-05T05:57:56.959Z,11.97
2019-02-05T06:00:25.342Z,13.08
2019-02-05T06:02:53.640Z,12.88
2019-02-05T06:05:22.120Z,13.50
2019-02-05T06:07:50.895Z,13.30
2019-02-05T06:10:19.164Z,14.07
2019-02-05T06:12:47.442Z,12.70
2019-02-05T06:15:16.557Z,13.55
2019-02-05T06:17:44.807Z,14.00
2019-02-05T06:20:18.370Z,12.25
2019-02-05T06:22:46.711Z,11.25
2019-02-05T06:25:15.175Z,11.55
2019-02-05T06:27:43.643Z,13.58
2019-02-05T06:30:16.630Z,14.25
2019-02-05T06:32:45.100Z,13.38
2019-02-05T06:35:13.435Z,14.40
2019-02-05T06:37:41.834Z,15.60
2019-02-05T06:40:19.285Z,13.93
2019-02-05T06:42:48.558Z,12.70
2019-02-05T06:45:16.981Z,13.30
2019-02-05T06:47:45.212Z,14.75
2019-02-05T06:50:14.100Z,14.60
2019-02-05T06:52:42.376Z,15.88
2019-02-05T06:55:14.296Z,16.40
2019-02-05T06:57:42.566Z,15.63
2019-02-05T07:00:19.512Z,14.47
2019-02-05T07:02:47.819Z,15.18
2019-02-05T07:05:25.809Z,15.00
2019-02-05T07:07:56.262Z,14.65
2019-02-05T07:10:26.263Z,13.93
2019-02-05T07:12:54.520Z,14.23
2019-02-05T07:15:22.751Z,13.70
2019-02-05T07:17:50.990Z,15.60
2019-02-05T07:20:19.466Z,13.70
2019-02-05T07:22:47.714Z,16.12
2019-02-05T07:25:20.475Z,15.72
2019-02-05T07:27:51.027Z,15.48
2019-02-05T07:30:26.230Z,15.45
2019-02-05T07:32:54.577Z,15.63
2019-02-05T07:35:26.455Z,15.10
2019-02-05T07:37:55.108Z,15.85
2019-02-05T07:40:23.902Z,15.45
2019-02-05T07:42:52.217Z,15.10
2019-02-05T07:45:24.522Z,14.30
2019-02-05T07:47:52.797Z,15.63
2019-02-05T07:50:26.457Z,16.50
2019-02-05T07:52:54.878Z,15.48
2019-02-05T07:55:23.709Z,15.98
2019-02-05T07:57:53.116Z,16.50
2019-02-05T08:00:30.540Z,13.08
2019-02-05T08:02:59.876Z,15.20
2019-02-05T08:05:34.986Z,14.38
2019-02-05T08:08:05.046Z,13.35
2019-02-05T08:10:35.618Z,12.58
2019-02-05T08:13:04.213Z,11.68
2019-02-05T08:15:35.827Z,11.97
2019-02-05T08:18:04.762Z,11.43
2019-02-05T08:20:33.066Z,11.68
2019-02-05T08:23:01.286Z,12.05
2019-02-05T08:25:29.815Z,12.88
2019-02-05T08:27:58.393Z,12.13
2019-02-05T08:30:33.048Z,14.10
2019-02-05T08:33:01.917Z,14.53
2019-02-05T08:35:30.237Z,12.33
2019-02-05T08:37:58.474Z,11.93
2019-02-05T08:40:26.841Z,12.40
2019-02-05T08:42:55.133Z,11.25
2019-02-05T08:45:29.106Z,13.22
2019-02-05T08:47:57.410Z,12.45
2019-02-05T08:50:27.770Z,11.75
2019-02-05T08:52:56.092Z,11.43
2019-02-05T08:55:24.373Z,12.28
2019-02-05T08:57:58.484Z,11.63
2019-02-05T09:00:33.128Z,11.48
2019-02-05T09:03:01.404Z,10.68
2019-02-05T09:05:29.736Z,12.45
2019-02-05T09:07:58.222Z,12.30
2019-02-05T09:10:30.150Z,11.78
2019-02-05T09:12:58.409Z,12.33
2019-02-05T09:15:29.670Z,12.15
2019-02-05T09:17:57.966Z,11.73
2019-02-05T09:20:26.394Z,12.55
2019-02-05T09:22:54.848Z,11.73
2019-02-05T09:25:23.133Z,11.63
2019-02-05T09:27:51.408Z,13.15
2019-02-05T09:30:23.419Z,14.60
2019-02-05T09:32:54.288Z,13.58
2019-02-05T09:35:22.611Z,12.07
2019-02-05T09:37:51.076Z,12.07
2019-02-05T09:40:22.635Z,12.35
2019-02-05T09:42:51.035Z,12.80
2019-02-05T09:45:19.576Z,12.20
2019-02-05T09:47:47.879Z,11.08
2019-02-05T09:50:17.312Z,11.85
2019-02-05T09:52:45.699Z,11.95
2019-02-05T09:55:16.694Z,11.00
2019-02-05T09:57:44.997Z,11.95
2019-02-05T10:00:21.899Z,12.23
2019-02-05T10:02:50.225Z,12.60
2019-02-05T10:05:21.489Z,13.18
2019-02-05T10:07:49.917Z,12.47
2019-02-05T10:10:20.037Z,13.00
2019-02-05T10:12:48.272Z,12.47
2019-02-05T10:15:22.238Z,12.80
2019-02-05T10:17:50.665Z,13.43
2019-02-05T10:20:19.373Z,13.62
2019-02-05T10:22:48.875Z,14.20
2019-02-05T10:25:17.684Z,13.45
2019-02-05T10:27:46.006Z,13.53
2019-02-05T10:30:31.912Z,14.28
2019-02-05T10:33:01.878Z,13.68
2019-02-05T10:35:30.176Z,12.90
2019-02-05T10:37:58.474Z,15.03
2019-02-05T10:40:27.039Z,15.50
2019-02-05T10:42:55.354Z,16.15
2019-02-05T10:45:26.139Z,14.68
2019-02-05T10:47:54.593Z,12.93
2019-02-05T10:50:23.355Z,13.28
2019-02-05T10:52:51.587Z,14.03
2019-02-05T10:55:21.551Z,14.50
2019-02-05T10:57:51.946Z,16.02
2019-02-05T11:00:33.622Z,15.15
2019-02-05T11:03:04.743Z,15.50
2019-02-05T11:05:33.033Z,13.70
2019-02-05T11:08:01.342Z,13.90
2019-02-05T11:10:29.626Z,15.25
2019-02-05T11:12:58.057Z,15.78
2019-02-05T11:15:30.850Z,18.32
2019-02-05T11:17:59.221Z,16.82
2019-02-05T11:20:28.382Z,15.95
2019-02-05T11:22:56.774Z,15.93
2019-02-05T11:25:25.073Z,14.53
2019-02-05T11:27:53.407Z,16.52
2019-02-05T11:30:26.888Z,15.58
2019-02-05T11:32:55.198Z,15.00
2019-02-05T11:35:23.507Z,14.85
2019-02-05T11:37:52.352Z,14.38
2019-02-05T11:40:26.636Z,13.22
2019-02-05T11:42:56.509Z,12.65
2019-02-05T11:45:24.817Z,14.03
2019-02-05T11:47:53.138Z,14.47
2019-02-05T11:50:23.072Z,14.60
2019-02-05T11:52:51.777Z,12.50
2019-02-05T11:55:23.089Z,14.73
2019-02-05T11:57:51.450Z,11.38
2019-02-05T12:00:32.054Z,12.15
2019-02-05T12:02:52.915Z,12.55
2019-02-05T12:05:21.236Z,12.70
2019-02-05T12:07:49.708Z,14.18
2019-02-05T12:10:18.427Z,13.50
2019-02-05T12:12:46.930Z,13.10
2019-02-05T12:15:16.477Z,13.68
2019-02-05T12:17:44.727Z,14.03
2019-02-05T12:20:17.470Z,14.33
2019-02-05T12:22:45.942Z,14.25
2019-02-05T12:25:24.906Z,14.35
2019-02-05T12:27:53.214Z,14.23
2019-02-05T12:30:24.713Z,13.70
2019-02-05T12:32:53.178Z,14.15
2019-02-05T12:35:21.516Z,15.50
2019-02-05T12:37:49.839Z,16.52
2019-02-05T12:40:19.203Z,14.85
2019-02-05T12:42:47.430Z,14.65
2019-02-05T12:45:19.295Z,15.20
2019-02-05T12:47:47.519Z,15.98
2019-02-05T12:50:30.260Z,16.17
2019-02-05T12:53:17.946Z,15.13
2019-02-05T12:55:46.429Z,13.78
2019-02-05T12:58:14.656Z,14.53
2019-02-05T13:00:56.700Z,13.58
2019-02-05T13:03:18.793Z,15.13
2019-02-05T13:05:47.141Z,13.68
2019-02-05T13:08:15.366Z,12.50
2019-02-05T13:10:49.914Z,13.58
2019-02-05T13:13:18.493Z,14.33
2019-02-05T13:15:46.937Z,13.90
2019-02-05T13:18:15.640Z,15.53
2019-02-05T13:20:43.924Z,13.22
2019-02-05T13:23:12.402Z,14.93
2019-02-05T13:25:40.803Z,15.72
2019-02-05T13:28:09.976Z,13.93
2019-02-05T13:30:38.339Z,12.55
2019-02-05T13:33:08.578Z,13.30
2019-02-05T13:35:36.899Z,13.72
2019-02-05T13:38:05.263Z,13.90
2019-02-05T13:40:33.636Z,15.23
2019-02-05T13:43:02.034Z,13.28
2019-02-05T13:45:32.573Z,13.53
2019-02-05T13:48:02.287Z,13.45
2019-02-05T13:50:33.654Z,13.93
2019-02-05T13:53:02.532Z,14.97
2019-02-05T13:55:32.995Z,13.53
2019-02-05T13:58:01.227Z,14.35
2019-02-05T14:00:41.500Z,25.55
2019-02-05T14:03:10.597Z,12.78
2019-02-05T14:05:39.169Z,14.18
2019-02-05T14:08:07.988Z,13.83
2019-02-05T14:10:40.861Z,14.98
2019-02-05T14:13:09.124Z,13.20
2019-02-05T14:15:42.358Z,14.53
2019-02-05T14:18:11.221Z,13.38
2019-02-05T14:20:39.610Z,13.20
2019-02-05T14:23:08.222Z,14.75
2019-02-05T14:25:36.529Z,13.75
2019-02-05T14:28:04.761Z,13.32
2019-02-05T14:30:38.874Z,13.68
2019-02-05T14:33:07.232Z,14.47
2019-02-05T14:35:35.524Z,14.87
2019-02-05T14:38:04.641Z,15.45
2019-02-05T14:40:32.891Z,15.40
2019-02-05T14:43:01.139Z,14.03
2019-02-05T14:45:32.237Z,14.73
2019-02-05T14:48:00.852Z,16.45
2019-02-05T14:50:34.793Z,15.90
2019-02-05T14:53:03.448Z,14.25
2019-02-05T14:55:31.685Z,16.48
2019-02-05T14:57:59.935Z,17.07
2019-02-05T15:00:36.987Z,19.02
2019-02-05T15:03:07.963Z,18.60
2019-02-05T15:05:36.564Z,18.17
2019-02-05T15:08:06.168Z,17.55
2019-02-05T15:10:34.435Z,16.52
2019-02-05T15:13:02.742Z,17.15
2019-02-05T15:15:31.821Z,15.93
2019-02-05T15:18:00.053Z,17.92
2019-02-05T15:20:43.093Z,16.12
2019-02-05T15:23:11.615Z,14.43
2019-02-05T15:25:39.904Z,15.53
2019-02-05T15:28:08.522Z,15.85
2019-02-05T15:30:41.530Z,15.85
2019-02-05T15:33:16.701Z,15.10
2019-02-05T15:35:49.757Z,16.73
2019-02-05T15:38:18.089Z,16.23
2019-02-05T15:40:46.904Z,16.85
2019-02-05T15:43:15.139Z,16.52
2019-02-05T15:45:43.465Z,16.93
2019-02-05T15:48:11.716Z,16.25
2019-02-05T15:50:39.953Z,15.00
2019-02-05T15:53:08.458Z,15.93
2019-02-05T15:55:36.954Z,18.45
2019-02-05T15:58:05.200Z,17.27
2019-02-05T16:00:34.708Z,17.25
2019-02-05T16:03:03.246Z,18.30
2019-02-05T16:05:31.651Z,16.70
2019-02-05T16:07:59.900Z,16.97
2019-02-05T16:10:28.144Z,18.45
2019-02-05T16:12:56.830Z,15.78
2019-02-05T16:15:25.101Z,18.32
2019-02-05T16:17:53.373Z,17.87
2019-02-05T16:20:22.030Z,16.75
2019-02-05T16:22:50.529Z,19.50
2019-02-05T16:25:19.326Z,17.98
2019-02-05T16:27:47.555Z,19.17
2019-02-05T16:30:19.657Z,18.42
2019-02-05T16:32:47.901Z,18.02
2019-02-05T16:35:16.168Z,16.37
2019-02-05T16:37:44.481Z,17.75
2019-02-05T16:40:30.729Z,19.42
2019-02-05T16:42:58.957Z,16.67
2019-02-05T16:45:28.718Z,17.55
2019-02-05T16:47:58.065Z,16.67
2019-02-05T16:50:42.045Z,18.23
2019-02-05T16:53:10.556Z,18.73
2019-02-05T16:55:38.787Z,17.42
2019-02-05T16:58:07.192Z,17.75
2019-02-05T17:00:36.657Z,18.32
2019-02-05T17:03:06.015Z,16.42
2019-02-05T17:05:36.278Z,16.60
2019-02-05T17:08:04.517Z,16.42
2019-02-05T17:10:32.756Z,15.23
2019-02-05T17:13:01.114Z,16.55
2019-02-05T17:15:29.650Z,15.85
2019-02-05T17:17:57.914Z,17.77
2019-02-05T17:20:31.491Z,16.10
2019-02-05T17:23:00.660Z,15.83
2019-02-05T17:25:30.084Z,16.85
2019-02-05T17:28:01.270Z,16.65
2019-02-05T17:30:35.115Z,15.50
2019-02-05T17:33:03.419Z,15.38
2019-02-05T17:35:31.729Z,14.83
2019-02-05T17:38:00.343Z,17.55
2019-02-05T17:40:28.606Z,15.08
2019-02-05T17:42:56.900Z,15.48
2019-02-05T17:45:36.171Z,15.10
2019-02-05T17:48:10.345Z,14.60
2019-02-05T17:50:38.673Z,14.80
2019-02-05T17:53:07.079Z,15.13
2019-02-05T17:55:35.307Z,14.70
2019-02-05T17:58:03.683Z,14.63
2019-02-05T18:00:50.809Z,16.17
2019-02-05T18:03:25.440Z,16.20
2019-02-05T18:05:53.768Z,14.50
2019-02-05T18:08:22.134Z,15.65
2019-02-05T18:10:50.427Z,13.98
2019-02-05T18:13:18.819Z,15.65
2019-02-05T18:15:47.865Z,14.38
2019-02-05T18:18:16.696Z,14.98
2019-02-05T18:20:45.136Z,18.15
2019-02-05T18:23:13.452Z,22.48
2019-02-05T18:25:41.878Z,15.05
2019-02-05T18:28:10.129Z,15.15
2019-02-05T18:30:38.711Z,15.83
2019-02-05T18:33:07.391Z,15.90
2019-02-05T18:35:35.698Z,14.35
2019-02-05T18:38:10.611Z,14.55
2019-02-05T18:40:38.971Z,13.25
2019-02-05T18:43:07.538Z,15.13
2019-02-05T18:45:36.094Z,13.75
2019-02-05T18:48:05.016Z,12.58
2019-02-05T18:50:33.447Z,13.78
2019-02-05T18:53:01.995Z,14.35
2019-02-05T18:55:39.162Z,13.05
2019-02-05T18:58:09.613Z,13.38
2019-02-05T19:00:44.220Z,13.70
2019-02-05T19:03:15.506Z,13.32
2019-02-05T19:05:43.331Z,13.75
2019-02-05T19:08:16.621Z,13.28
2019-02-05T19:10:44.680Z,13.83
2019-02-05T19:13:13.125Z,14.03
2019-02-05T19:15:44.120Z,12.73
2019-02-05T19:18:12.501Z,14.10
2019-02-05T19:20:40.733Z,15.45
2019-02-05T19:23:10.165Z,20.45
2019-02-05T19:25:46.432Z,16.97
2019-02-05T19:28:24.002Z,15.88
2019-02-05T19:30:54.130Z,14.73
2019-02-05T19:33:27.335Z,15.13
2019-02-05T19:35:52.538Z,15.45
2019-02-05T19:38:25.904Z,14.68
2019-02-05T19:40:57.492Z,15.98
2019-02-05T19:43:24.256Z,15.35
2019-02-05T19:45:56.953Z,15.90
2019-02-05T19:48:32.618Z,14.85
2019-02-05T19:51:01.828Z,14.80
2019-02-05T19:53:30.123Z,14.75
2019-02-05T19:55:58.770Z,16.05
2019-02-05T19:58:27.320Z,16.25
2019-02-05T20:00:56.152Z,15.10
2019-02-05T20:03:25.899Z,15.23
2019-02-05T20:05:54.570Z,14.98
2019-02-05T20:08:26.671Z,16.00
2019-02-05T20:10:57.767Z,14.97
2019-02-05T20:13:26.275Z,16.42
2019-02-05T20:15:55.074Z,16.60
2019-02-05T20:18:23.362Z,16.82
2019-02-05T20:20:54.096Z,16.35
2019-02-05T20:23:22.425Z,16.82
2019-02-05T20:25:50.678Z,17.17
2019-02-05T20:28:19.821Z,17.90
2019-02-05T20:30:48.093Z,16.07
2019-02-05T20:33:16.978Z,16.82
2019-02-05T20:35:45.879Z,18.62
2019-02-05T20:38:14.114Z,15.95
2019-02-05T20:40:42.403Z,17.45
2019-02-05T20:43:12.846Z,17.50
2019-02-05T20:45:42.151Z,16.23
2019-02-05T20:48:10.399Z,18.60
2019-02-05T20:50:39.418Z,17.73
2019-02-05T20:53:13.914Z,17.90
2019-02-05T20:55:37.680Z,16.35
2019-02-05T20:58:06.329Z,17.60
2019-02-05T21:00:34.982Z,16.85
2019-02-05T21:03:03.301Z,17.45
2019-02-05T21:05:31.700Z,16.45
2019-02-05T21:08:01.225Z,17.98
2019-02-05T21:10:30.743Z,18.12
2019-02-05T21:12:59.099Z,17.95
2019-02-05T21:15:27.436Z,18.02
2019-02-05T21:17:55.764Z,17.45
2019-02-05T21:20:32.200Z,17.42
2019-02-05T21:23:01.895Z,17.37
2019-02-05T21:25:30.162Z,17.77
2019-02-05T21:27:58.755Z,17.80
2019-02-05T21:30:31.127Z,18.55
2019-02-05T21:32:59.407Z,18.02
2019-02-05T21:35:27.659Z,18.75
2019-02-05T21:37:56.615Z,17.85
2019-02-05T21:40:26.063Z,19.12
2019-02-05T21:42:54.391Z,19.75
2019-02-05T21:45:26.913Z,18.65
2019-02-05T21:47:55.219Z,18.73
2019-02-05T21:50:24.205Z,16.85
2019-02-05T21:52:57.570Z,18.62
2019-02-05T21:55:26.783Z,19.35
2019-02-05T21:57:55.106Z,18.85
2019-02-05T22:00:31.605Z,18.10
2019-02-05T22:03:00.094Z,18.67
2019-02-05T22:05:30.546Z,17.42
2019-02-05T22:08:00.998Z,17.40
2019-02-05T22:10:29.374Z,18.02
2019-02-05T22:12:57.799Z,17.20
2019-02-05T22:15:26.586Z,17.87
2019-02-05T22:17:55.017Z,18.05
2019-02-05T22:20:25.956Z,17.32
2019-02-05T22:22:56.146Z,17.75
2019-02-05T22:25:29.979Z,16.85
2019-02-05T22:27:58.440Z,16.73
2019-02-05T22:30:34.000Z,18.07
2019-02-05T22:33:02.279Z,18.85
2019-02-05T22:35:30.619Z,16.62
2019-02-05T22:37:59.079Z,17.05
2019-02-05T22:40:28.121Z,17.60
2019-02-05T22:42:56.511Z,16.07
2019-02-05T22:45:29.929Z,16.85
2019-02-05T22:47:58.218Z,17.42
2019-02-05T22:50:28.838Z,17.87
2019-02-05T22:52:57.239Z,17.32
2019-02-05T22:55:25.678Z,17.67
2019-02-05T22:57:53.993Z,17.65
2019-02-05T23:00:30.226Z,17.07
2019-02-05T23:02:58.902Z,17.27
2019-02-05T23:05:38.421Z,17.02
2019-02-05T23:08:07.814Z,15.88
2019-02-05T23:10:39.408Z,15.10
2019-02-05T23:13:08.040Z,16.17
2019-02-05T23:15:36.898Z,16.05
2019-02-05T23:18:05.348Z,15.65
2019-02-05T23:20:33.638Z,15.25
2019-02-05T23:23:02.139Z,14.95
2019-02-05T23:25:30.679Z,15.35
2019-02-05T23:27:59.217Z,15.45
2019-02-05T23:30:27.482Z,15.63
2019-02-05T23:32:55.725Z,15.65
2019-02-05T23:35:24.264Z,15.45
2019-02-05T23:37:52.686Z,14.07
2019-02-05T23:40:20.986Z,14.28
2019-02-05T23:42:49.217Z,13.50
2019-02-05T23:45:17.635Z,14.38
2019-02-05T23:47:46.968Z,13.35
2019-02-05T23:50:15.495Z,13.70
2019-02-05T23:52:44.534Z,13.22
2019-02-05T23:55:14.030Z,13.22
2019-02-05T23:57:42.354Z,13.03
